createdAt,value
2018-12-22T00:01:38.877Z,2.73
2018-12-22T00:04:07.045Z,4.23
2018-12-22T00:06:35.209Z,3.13
2018-12-22T00:09:05.091Z,2.80
2018-12-22T00:11:33.578Z,5.30
2018-12-22T00:14:01.969Z,3.93
2018-12-22T00:16:30.486Z,3.37
2018-12-22T00:18:58.633Z,4.50
2018-12-22T00:21:26.967Z,3.63
2018-12-22T00:23:55.113Z,3.90
2018-12-22T00:26:23.293Z,3.63
2018-12-22T00:28:51.442Z,3.40
2018-12-22T00:31:19.608Z,3.03
2018-12-22T00:33:47.853Z,2.27
2018-12-22T00:36:16.049Z,3.10
2018-12-22T00:38:44.218Z,2.90
2018-12-22T00:41:12.370Z,2.63
2018-12-22T00:43:40.519Z,5.30
2018-12-22T00:46:08.664Z,2.30
2018-12-22T00:48:36.905Z,2.50
2018-12-22T00:51:05.121Z,2.70
2018-12-22T00:53:33.293Z,3.10
2018-12-22T00:56:01.445Z,2.97
2018-12-22T00:58:30.868Z,2.80
2018-12-22T01:00:59.533Z,3.87
2018-12-22T01:03:27.879Z,2.20
2018-12-22T01:05:56.283Z,4.67
2018-12-22T01:08:24.614Z,2.50
2018-12-22T01:10:52.760Z,3.37
2018-12-22T01:13:20.944Z,2.60
2018-12-22T01:15:49.129Z,3.20
2018-12-22T01:18:17.318Z,3.53
2018-12-22T01:20:45.658Z,5.40
2018-12-22T01:23:14.094Z,2.47
2018-12-22T01:25:43.245Z,3.20
2018-12-22T01:28:11.416Z,3.00
2018-12-22T01:30:39.645Z,4.33
2018-12-22T01:33:07.912Z,3.23
2018-12-22T01:35:36.203Z,4.23
2018-12-22T01:38:04.642Z,2.17
2018-12-22T01:40:33.074Z,3.40
2018-12-22T01:43:01.451Z,2.70
2018-12-22T01:45:29.685Z,3.60
2018-12-22T01:47:57.853Z,4.60
2018-12-22T01:50:26.005Z,2.30
2018-12-22T01:52:54.194Z,3.03
2018-12-22T01:55:22.365Z,3.87
2018-12-22T01:57:50.563Z,2.47
2018-12-22T02:00:18.780Z,2.37
2018-12-22T02:02:46.933Z,3.87
2018-12-22T02:05:15.078Z,3.30
2018-12-22T02:07:43.233Z,3.47
2018-12-22T02:10:11.378Z,6.40
2018-12-22T02:12:39.613Z,3.37
2018-12-22T02:15:07.939Z,3.90
2018-12-22T02:17:36.293Z,2.93
2018-12-22T02:20:05.029Z,3.70
2018-12-22T02:22:33.296Z,4.07
2018-12-22T02:25:01.485Z,3.23
2018-12-22T02:27:29.644Z,4.57
2018-12-22T02:29:57.837Z,5.30
2018-12-22T02:32:26.111Z,3.93
2018-12-22T02:34:54.250Z,3.23
2018-12-22T02:37:22.685Z,4.30
2018-12-22T02:39:50.905Z,8.20
2018-12-22T02:42:19.039Z,3.90
2018-12-22T02:44:47.274Z,5.00
2018-12-22T02:47:15.513Z,8.53
2018-12-22T02:49:43.704Z,6.47
2018-12-22T02:52:11.928Z,8.33
2018-12-22T02:54:40.067Z,6.20
2018-12-22T02:57:08.294Z,6.13
2018-12-22T02:59:36.460Z,5.17
2018-12-22T03:02:04.722Z,6.23
2018-12-22T03:04:32.946Z,5.67
2018-12-22T03:07:01.106Z,6.00
2018-12-22T03:09:29.270Z,7.30
2018-12-22T03:11:57.498Z,10.40
2018-12-22T03:14:26.284Z,6.57
2018-12-22T03:16:54.449Z,7.63
2018-12-22T03:19:22.610Z,7.13
2018-12-22T03:21:50.739Z,8.03
2018-12-22T03:24:18.977Z,7.60
2018-12-22T03:26:47.215Z,7.63
2018-12-22T03:29:16.090Z,8.07
2018-12-22T03:31:44.583Z,10.10
2018-12-22T03:34:12.871Z,12.20
2018-12-22T03:36:41.154Z,9.93
2018-12-22T03:39:09.310Z,10.60
2018-12-22T03:41:37.621Z,12.43
2018-12-22T03:44:05.919Z,11.53
2018-12-22T03:46:34.062Z,11.50
2018-12-22T03:49:02.290Z,13.60
2018-12-22T03:51:30.534Z,13.70
2018-12-22T03:53:58.690Z,12.17
2018-12-22T03:56:26.813Z,13.10
2018-12-22T03:58:54.968Z,14.70
2018-12-22T04:01:23.124Z,14.03
2018-12-22T04:03:51.281Z,15.37
2018-12-22T04:06:19.429Z,13.13
2018-12-22T04:08:47.644Z,14.07
2018-12-22T04:11:15.870Z,15.33
2018-12-22T04:13:44.008Z,17.40
2018-12-22T04:16:12.162Z,16.20
2018-12-22T04:18:40.408Z,14.87
2018-12-22T04:21:08.553Z,15.47
2018-12-22T04:23:36.700Z,16.10
2018-12-22T04:26:04.924Z,13.77
2018-12-22T04:28:33.070Z,17.37
2018-12-22T04:31:01.251Z,14.27
2018-12-22T04:33:29.390Z,17.63
2018-12-22T04:35:57.545Z,15.73
2018-12-22T04:38:25.682Z,19.73
2018-12-22T04:40:53.876Z,17.80
2018-12-22T04:43:22.126Z,15.83
2018-12-22T04:45:50.377Z,15.77
2018-12-22T04:48:18.521Z,16.57
2018-12-22T04:50:46.685Z,16.70
2018-12-22T04:53:14.961Z,18.53
2018-12-22T04:55:43.221Z,17.23
2018-12-22T04:58:11.440Z,18.10
2018-12-22T05:00:39.593Z,20.40
2018-12-22T05:03:07.838Z,18.97
2018-12-22T05:05:36.101Z,20.50
2018-12-22T05:08:04.317Z,17.63
2018-12-22T05:10:32.550Z,17.20
2018-12-22T05:13:00.699Z,15.77
2018-12-22T05:15:28.870Z,21.67
2018-12-22T05:17:57.034Z,16.80
2018-12-22T05:20:25.194Z,16.17
2018-12-22T05:22:53.343Z,18.20
2018-12-22T05:25:21.497Z,15.90
2018-12-22T05:27:49.637Z,18.43
2018-12-22T05:30:17.877Z,16.97
2018-12-22T05:32:46.030Z,18.90
2018-12-22T05:35:14.270Z,17.40
2018-12-22T05:37:42.410Z,16.07
2018-12-22T05:40:10.649Z,18.00
2018-12-22T05:42:38.793Z,15.20
2018-12-22T05:45:07.294Z,19.00
2018-12-22T05:47:35.657Z,18.33
2018-12-22T05:50:04.232Z,18.17
2018-12-22T05:52:32.365Z,15.27
2018-12-22T05:55:00.602Z,18.00
2018-12-22T05:57:28.979Z,18.87
2018-12-22T06:00:00.709Z,21.70
2018-12-22T06:02:27.368Z,19.27
2018-12-22T06:04:55.534Z,20.47
2018-12-22T06:07:23.757Z,19.33
2018-12-22T06:09:52.009Z,20.63
2018-12-22T06:12:20.166Z,21.23
2018-12-22T06:14:48.413Z,21.70
2018-12-22T06:17:16.633Z,21.47
2018-12-22T06:19:44.798Z,21.10
2018-12-22T06:22:12.969Z,19.73
2018-12-22T06:24:41.117Z,18.40
2018-12-22T06:27:09.329Z,20.13
2018-12-22T06:29:37.470Z,18.20
2018-12-22T06:32:05.706Z,23.77
2018-12-22T06:34:33.872Z,22.43
2018-12-22T06:37:02.097Z,18.50
2018-12-22T06:39:30.239Z,20.80
2018-12-22T06:41:58.375Z,21.20
2018-12-22T06:44:26.529Z,20.27
2018-12-22T06:46:54.858Z,21.37
2018-12-22T06:49:23.148Z,20.87
2018-12-22T06:51:51.385Z,20.60
2018-12-22T06:54:20.654Z,18.03
2018-12-22T06:56:48.816Z,21.13
2018-12-22T06:59:16.999Z,22.17
2018-12-22T07:01:45.207Z,19.37
2018-12-22T07:04:13.478Z,18.67
2018-12-22T07:06:41.618Z,21.00
2018-12-22T07:09:09.971Z,20.23
2018-12-22T07:11:38.117Z,20.23
2018-12-22T07:14:06.385Z,18.60
2018-12-22T07:16:34.545Z,21.23
2018-12-22T07:19:02.702Z,19.47
2018-12-22T07:21:30.869Z,21.30
2018-12-22T07:23:59.035Z,19.83
2018-12-22T07:26:27.204Z,19.77
2018-12-22T07:28:55.383Z,17.97
2018-12-22T07:31:23.549Z,19.83
2018-12-22T07:33:51.713Z,21.00
2018-12-22T07:36:19.982Z,17.70
2018-12-22T07:38:48.177Z,20.60
2018-12-22T07:41:16.331Z,18.20
2018-12-22T07:43:44.474Z,17.43
2018-12-22T07:46:12.645Z,16.73
2018-12-22T07:48:40.862Z,17.80
2018-12-22T07:51:09.029Z,19.80
2018-12-22T07:53:37.264Z,18.87
2018-12-22T07:56:05.434Z,19.13
2018-12-22T07:58:33.595Z,19.73
2018-12-22T08:01:01.938Z,19.07
2018-12-22T08:03:30.085Z,20.13
2018-12-22T08:05:58.247Z,18.17
2018-12-22T08:08:26.397Z,20.77
2018-12-22T08:10:54.617Z,18.13
2018-12-22T08:13:22.916Z,17.43
2018-12-22T08:15:51.073Z,17.70
2018-12-22T08:18:19.375Z,18.53
2018-12-22T08:20:47.497Z,19.47
2018-12-22T08:23:15.721Z,17.53
2018-12-22T08:25:43.940Z,18.37
2018-12-22T08:28:12.162Z,18.27
2018-12-22T08:30:43.748Z,17.97
2018-12-22T08:33:10.447Z,16.87
2018-12-22T08:35:38.641Z,16.63
2018-12-22T08:38:06.861Z,14.17
2018-12-22T08:40:35.069Z,14.10
2018-12-22T08:43:03.292Z,12.77
2018-12-22T08:45:31.651Z,12.47
2018-12-22T08:47:59.801Z,9.93
2018-12-22T08:50:28.090Z,10.40
2018-12-22T08:52:56.302Z,8.83
2018-12-22T08:55:24.566Z,8.70
2018-12-22T08:57:52.811Z,10.23
2018-12-22T09:00:21.086Z,7.50
2018-12-22T09:02:49.221Z,9.47
2018-12-22T09:05:17.345Z,10.37
2018-12-22T09:07:45.468Z,9.23
2018-12-22T09:10:13.600Z,9.93
2018-12-22T09:12:41.756Z,9.17
2018-12-22T09:15:10.038Z,9.47
2018-12-22T09:17:38.180Z,10.87
2018-12-22T09:20:09.090Z,8.47
2018-12-22T09:22:37.285Z,10.53
2018-12-22T09:25:06.755Z,12.23
2018-12-22T09:27:34.967Z,11.30
2018-12-22T09:30:03.169Z,8.27
2018-12-22T09:32:31.306Z,8.67
2018-12-22T09:34:59.429Z,8.77
2018-12-22T09:37:27.566Z,8.40
2018-12-22T09:39:55.711Z,7.93
2018-12-22T09:42:23.844Z,7.23
2018-12-22T09:44:52.072Z,7.70
2018-12-22T09:47:20.303Z,7.00
2018-12-22T09:49:48.433Z,6.20
2018-12-22T09:52:16.590Z,6.53
2018-12-22T09:54:44.766Z,5.87
2018-12-22T09:57:19.760Z,4.53
2018-12-22T09:59:47.960Z,5.30
2018-12-22T10:02:16.112Z,5.37
2018-12-22T10:04:44.243Z,3.90
2018-12-22T10:07:12.587Z,4.30
2018-12-22T10:09:42.472Z,3.13
2018-12-22T10:12:10.753Z,2.40
2018-12-22T10:14:38.881Z,3.23
2018-12-22T10:17:07.107Z,3.53
2018-12-22T10:19:35.236Z,2.67
2018-12-22T10:22:03.540Z,2.80
2018-12-22T10:24:31.678Z,3.53
2018-12-22T10:26:59.867Z,2.63
2018-12-22T10:29:28.012Z,2.73
2018-12-22T10:31:56.229Z,2.17
2018-12-22T10:34:24.361Z,2.87
2018-12-22T10:36:52.489Z,3.07
2018-12-22T10:39:20.765Z,2.30
2018-12-22T10:41:48.959Z,2.13
2018-12-22T10:44:17.104Z,2.80
2018-12-22T10:46:45.371Z,3.77
2018-12-22T10:49:13.509Z,2.10
2018-12-22T10:51:41.731Z,2.40
2018-12-22T10:54:09.878Z,4.33
2018-12-22T10:56:38.015Z,2.90
2018-12-22T10:59:06.157Z,3.43
2018-12-22T11:01:34.373Z,3.00
2018-12-22T11:04:02.504Z,2.67
2018-12-22T11:06:30.640Z,3.47
2018-12-22T11:08:58.873Z,3.27
2018-12-22T11:11:27.002Z,4.93
2018-12-22T11:13:55.305Z,3.07
2018-12-22T11:16:23.586Z,3.77
2018-12-22T11:18:51.766Z,3.47
2018-12-22T11:21:20.059Z,4.80
2018-12-22T11:23:48.384Z,3.63
2018-12-22T11:26:16.648Z,4.63
2018-12-22T11:28:44.893Z,3.93
2018-12-22T11:31:13.130Z,4.33
2018-12-22T11:33:41.330Z,3.67
2018-12-22T11:36:09.731Z,3.87
2018-12-22T11:38:37.997Z,3.73
2018-12-22T11:41:06.286Z,4.27
2018-12-22T11:43:34.500Z,3.10
2018-12-22T11:46:02.845Z,3.43
2018-12-22T11:48:41.398Z,4.33
2018-12-22T11:51:09.650Z,3.70
2018-12-22T11:53:37.937Z,3.03
2018-12-22T11:56:06.277Z,4.10
2018-12-22T12:01:27.551Z,2.93
2018-12-22T12:03:55.759Z,2.97
2018-12-22T12:06:24.981Z,3.53
2018-12-22T12:08:53.190Z,3.43
2018-12-22T12:11:21.376Z,3.60
2018-12-22T12:13:49.556Z,5.33
2018-12-22T12:16:34.266Z,3.17
2018-12-22T12:19:14.119Z,4.80
2018-12-22T12:21:42.562Z,4.47
2018-12-22T12:24:10.973Z,5.10
2018-12-22T12:26:39.238Z,5.87
2018-12-22T12:29:07.695Z,6.73
2018-12-22T12:31:36.174Z,6.83
2018-12-22T12:34:04.643Z,8.73
2018-12-22T12:36:33.046Z,8.77
2018-12-22T12:39:01.305Z,10.03
2018-12-22T12:41:29.618Z,9.77
2018-12-22T12:43:57.858Z,11.10
2018-12-22T12:46:34.488Z,10.47
2018-12-22T12:49:03.274Z,9.27
2018-12-22T12:52:01.147Z,9.90
2018-12-22T12:54:30.172Z,9.27
2018-12-22T12:56:59.711Z,8.87
2018-12-22T12:59:30.047Z,9.30
2018-12-22T13:02:01.255Z,10.40
2018-12-22T13:04:28.934Z,10.00
2018-12-22T13:06:57.293Z,9.43
2018-12-22T13:09:26.875Z,11.23
2018-12-22T13:12:00.226Z,9.30
2018-12-22T13:14:31.265Z,10.73
2018-12-22T13:16:59.503Z,9.63
2018-12-22T13:19:27.736Z,9.33
2018-12-22T13:21:56.045Z,8.53
2018-12-22T13:24:25.381Z,9.43
2018-12-22T13:26:53.832Z,8.20
2018-12-22T13:29:22.101Z,9.83
2018-12-22T13:31:50.429Z,8.80
2018-12-22T13:34:20.774Z,11.07
2018-12-22T13:36:49.101Z,7.83
2018-12-22T13:39:21.260Z,10.13
2018-12-22T13:41:49.541Z,7.90
2018-12-22T13:44:17.927Z,10.20
2018-12-22T13:46:46.297Z,7.93
2018-12-22T13:49:14.703Z,9.80
2018-12-22T13:51:45.994Z,8.77
2018-12-22T13:54:17.170Z,6.63
2018-12-22T13:56:45.375Z,11.20
2018-12-22T13:59:43.166Z,9.53
2018-12-22T14:02:18.136Z,8.07
2018-12-22T14:04:42.054Z,6.03
2018-12-22T14:07:11.674Z,8.57
2018-12-22T14:09:40.013Z,6.90
2018-12-22T14:12:08.327Z,7.67
2018-12-22T14:14:38.698Z,7.67
2018-12-22T14:17:20.094Z,9.10
2018-12-22T14:20:22.765Z,5.80
2018-12-22T14:22:51.387Z,9.40
2018-12-22T14:25:24.607Z,8.60
2018-12-22T14:27:53.065Z,7.73
2018-12-22T14:30:21.486Z,8.50
2018-12-22T14:32:49.909Z,6.87
2018-12-22T14:35:40.192Z,6.03
2018-12-22T14:38:08.512Z,7.27
2018-12-22T14:40:36.804Z,3.60
2018-12-22T14:43:10.114Z,7.03
2018-12-22T14:45:38.477Z,10.57
2018-12-22T14:48:06.805Z,5.30
2018-12-22T14:50:35.080Z,4.80
2018-12-22T14:53:03.457Z,4.63
2018-12-22T14:55:32.453Z,6.27
2018-12-22T14:58:06.727Z,4.47
2018-12-22T15:00:37.085Z,6.00
2018-12-22T15:03:07.436Z,4.73
2018-12-22T15:05:37.711Z,5.87
2018-12-22T15:08:05.900Z,6.13
2018-12-22T15:10:35.184Z,5.93
2018-12-22T15:13:04.569Z,2.57
2018-12-22T15:15:32.796Z,6.27
2018-12-22T15:18:01.165Z,5.87
2018-12-22T15:20:33.561Z,2.43
2018-12-22T15:23:05.633Z,4.73
2018-12-22T15:25:35.030Z,4.23
2018-12-22T15:28:03.345Z,5.23
2018-12-22T15:30:31.650Z,7.80
2018-12-22T15:33:00.022Z,7.67
2018-12-22T15:35:28.425Z,5.70
2018-12-22T15:37:58.685Z,4.60
2018-12-22T15:40:33.669Z,5.27
2018-12-22T15:43:06.085Z,6.57
2018-12-22T15:45:34.378Z,9.43
2018-12-22T15:48:02.795Z,8.27
2018-12-22T15:50:34.610Z,9.23
2018-12-22T15:53:02.877Z,9.47
2018-12-22T15:55:31.029Z,9.13
2018-12-22T15:58:00.356Z,5.70
2018-12-22T16:00:28.673Z,7.10
2018-12-22T16:02:57.263Z,9.27
2018-12-22T16:05:26.554Z,8.73
2018-12-22T16:07:54.887Z,9.20
2018-12-22T16:10:23.138Z,6.67
2018-12-22T16:12:52.544Z,5.43
2018-12-22T16:15:21.955Z,4.33
2018-12-22T16:17:50.185Z,6.00
2018-12-22T16:20:18.830Z,7.67
2018-12-22T16:22:53.793Z,4.20
2018-12-22T16:25:26.778Z,5.27
2018-12-22T16:27:59.554Z,4.00
2018-12-22T16:30:32.926Z,6.37
2018-12-22T16:33:01.799Z,4.97
2018-12-22T16:35:31.374Z,4.53
2018-12-22T16:37:59.642Z,5.60
2018-12-22T16:40:28.035Z,6.67
2018-12-22T16:42:57.610Z,8.33
2018-12-22T16:45:29.895Z,4.73
2018-12-22T16:47:58.694Z,4.50
2018-12-22T16:50:27.873Z,7.00
2018-12-22T16:52:58.124Z,7.03
2018-12-22T16:55:26.861Z,6.37
2018-12-22T16:58:06.810Z,6.97
2018-12-22T17:00:43.371Z,6.20
2018-12-22T17:03:13.034Z,3.30
2018-12-22T17:05:41.415Z,6.33
2018-12-22T17:08:11.668Z,3.07
2018-12-22T17:10:43.733Z,6.17
2018-12-22T17:13:13.822Z,4.10
2018-12-22T17:15:47.266Z,4.77
2018-12-22T17:18:15.630Z,4.77
2018-12-22T17:20:43.998Z,3.27
2018-12-22T17:23:28.282Z,2.63
2018-12-22T17:26:01.142Z,2.47
2018-12-22T17:28:29.376Z,3.73
2018-12-22T17:30:57.612Z,6.23
2018-12-22T17:33:26.993Z,4.77
2018-12-22T17:35:56.297Z,6.07
2018-12-22T17:38:32.776Z,4.00
2018-12-22T17:41:01.513Z,3.47
2018-12-22T17:43:36.801Z,5.23
2018-12-22T17:46:07.146Z,6.27
2018-12-22T17:48:35.393Z,3.30
2018-12-22T17:51:05.749Z,5.20
2018-12-22T17:53:35.051Z,3.47
2018-12-22T17:56:03.329Z,3.33
2018-12-22T17:58:31.596Z,5.10
2018-12-22T18:01:00.024Z,6.70
2018-12-22T18:03:33.073Z,6.70
2018-12-22T18:06:02.429Z,5.37
2018-12-22T18:08:31.660Z,8.73
2018-12-22T18:10:59.997Z,6.00
2018-12-22T18:13:29.284Z,5.87
2018-12-22T18:15:59.330Z,6.13
2018-12-22T18:18:27.509Z,6.90
2018-12-22T18:20:55.877Z,5.17
2018-12-22T18:23:24.225Z,3.63
2018-12-22T18:25:53.537Z,7.43
2018-12-22T18:28:21.912Z,5.07
2018-12-22T18:30:52.228Z,4.67
2018-12-22T18:33:22.689Z,7.07
2018-12-22T18:35:51.087Z,4.83
2018-12-22T18:38:20.446Z,5.80
2018-12-22T18:40:48.762Z,4.97
2018-12-22T18:43:16.996Z,6.57
2018-12-22T18:45:45.513Z,6.27
2018-12-22T18:48:13.662Z,5.00
2018-12-22T18:50:44.106Z,6.47
2018-12-22T18:53:12.408Z,7.53
2018-12-22T18:55:41.185Z,4.50
2018-12-22T18:58:12.442Z,6.50
2018-12-22T19:00:41.761Z,6.67
2018-12-22T19:03:12.978Z,6.97
2018-12-22T19:05:41.324Z,5.83
2018-12-22T19:08:13.658Z,5.73
2018-12-22T19:10:46.482Z,6.57
2018-12-22T19:13:15.020Z,8.57
2018-12-22T19:15:43.861Z,8.03
2018-12-22T19:18:12.514Z,9.93
2018-12-22T19:20:52.472Z,6.50
2018-12-22T19:23:22.685Z,5.10
2018-12-22T19:25:52.086Z,5.83
2018-12-22T19:28:21.629Z,5.47
2018-12-22T19:30:50.748Z,7.83
2018-12-22T19:33:21.306Z,4.53
2018-12-22T19:35:50.269Z,6.33
2018-12-22T19:38:18.760Z,5.63
2018-12-22T19:40:48.375Z,9.97
2018-12-22T19:43:17.540Z,4.80
2018-12-22T19:45:46.082Z,4.37
2018-12-22T19:48:14.504Z,10.07
2018-12-22T19:50:44.126Z,9.97
2018-12-22T19:53:15.541Z,7.07
2018-12-22T19:55:48.589Z,8.10
2018-12-22T19:58:17.274Z,6.77
2018-12-22T20:00:46.685Z,6.07
2018-12-22T20:03:15.317Z,9.83
2018-12-22T20:05:44.332Z,5.63
2018-12-22T20:08:12.863Z,7.13
2018-12-22T20:10:42.316Z,6.03
2018-12-22T20:13:13.202Z,7.67
2018-12-22T20:15:43.078Z,6.57
2018-12-22T20:18:13.521Z,6.80
2018-12-22T20:20:42.627Z,5.93
2018-12-22T20:23:11.794Z,7.93
2018-12-22T20:25:40.152Z,7.93
2018-12-22T20:28:09.051Z,7.07
2018-12-22T20:30:39.559Z,5.20
2018-12-22T20:33:10.214Z,4.60
2018-12-22T20:35:39.532Z,5.80
2018-12-22T20:38:07.884Z,6.20
2018-12-22T20:40:36.300Z,4.57
2018-12-22T20:43:04.726Z,8.63
2018-12-22T20:45:34.159Z,7.97
2018-12-22T20:48:02.674Z,6.50
2018-12-22T20:50:31.207Z,8.57
2018-12-22T20:52:59.573Z,10.03
2018-12-22T20:55:31.563Z,5.83
2018-12-22T20:57:59.947Z,7.07
2018-12-22T21:00:29.219Z,6.80
2018-12-22T21:03:10.305Z,5.23
2018-12-22T21:05:44.598Z,11.70
2018-12-22T21:08:13.117Z,5.97
2018-12-22T21:10:41.478Z,5.87
2018-12-22T21:13:09.935Z,7.40
2018-12-22T21:15:38.228Z,7.20
2018-12-22T21:18:06.504Z,9.63
2018-12-22T21:20:34.956Z,7.23
2018-12-22T21:23:03.281Z,8.70
2018-12-22T21:25:31.712Z,12.67
2018-12-22T21:27:59.891Z,10.67
2018-12-22T21:30:28.329Z,9.47
2018-12-22T21:32:56.605Z,9.80
2018-12-22T21:35:26.889Z,9.70
2018-12-22T21:37:55.355Z,9.60
2018-12-22T21:40:23.752Z,10.60
2018-12-22T21:42:52.136Z,11.40
2018-12-22T21:45:23.975Z,10.67
2018-12-22T21:47:52.360Z,9.67
2018-12-22T21:50:21.637Z,9.00
2018-12-22T21:52:49.920Z,9.00
2018-12-22T21:55:20.343Z,12.80
2018-12-22T21:57:49.666Z,10.87
2018-12-22T22:00:18.048Z,11.07
2018-12-22T22:02:46.485Z,11.00
2018-12-22T22:05:14.803Z,9.13
2018-12-22T22:07:43.236Z,12.77
2018-12-22T22:10:13.604Z,9.00
2018-12-22T22:12:44.004Z,9.37
2018-12-22T22:15:12.464Z,8.63
2018-12-22T22:17:40.810Z,10.10
2018-12-22T22:20:09.278Z,10.87
2018-12-22T22:22:37.691Z,13.53
2018-12-22T22:25:08.208Z,12.03
2018-12-22T22:27:36.817Z,10.40
2018-12-22T22:30:06.074Z,8.40
2018-12-22T22:32:34.459Z,11.50
2018-12-22T22:35:04.115Z,9.13
2018-12-22T22:37:34.508Z,13.07
2018-12-22T22:40:03.033Z,8.90
2018-12-22T22:42:31.261Z,11.87
2018-12-22T22:45:00.589Z,11.93
2018-12-22T22:47:28.861Z,11.90
2018-12-22T22:49:58.173Z,10.57
2018-12-22T22:52:26.517Z,10.87
2018-12-22T22:54:54.826Z,10.57
2018-12-22T22:57:23.151Z,12.67
2018-12-22T22:59:51.457Z,8.20
2018-12-22T23:02:19.824Z,12.93
2018-12-22T23:04:54.366Z,11.87
2018-12-22T23:07:19.490Z,10.87
2018-12-22T23:09:49.844Z,6.30
2018-12-22T23:12:18.236Z,6.87
2018-12-22T23:14:46.569Z,9.27
2018-12-22T23:17:15.009Z,6.73
2018-12-22T23:19:43.245Z,5.50
2018-12-22T23:22:11.385Z,5.73
2018-12-22T23:24:39.636Z,6.17
2018-12-22T23:27:07.844Z,4.87
2018-12-22T23:29:35.998Z,7.97
2018-12-22T23:32:04.285Z,4.77
2018-12-22T23:34:32.443Z,4.40
2018-12-22T23:37:00.701Z,5.57
2018-12-22T23:39:28.857Z,5.70
2018-12-22T23:41:57.052Z,5.53
2018-12-22T23:44:25.340Z,5.73
2018-12-22T23:46:53.547Z,3.93
2018-12-22T23:49:21.777Z,6.63
2018-12-22T23:51:49.935Z,5.53
2018-12-22T23:54:18.077Z,4.17
2018-12-22T23:56:46.280Z,5.40
2018-12-22T23:59:14.417Z,4.53
